sensor_id;sensor_type;location;lat;lon;timestamp;P1;durP1;ratioP1;P2;durP2;ratioP2
16890;SDS011;8562;52.246;20.966;2022-10-16T00:00:43;9.37;;;6.57;;
16890;SDS011;8562;52.246;20.966;2022-10-16T00:03:09;13.77;;;6.20;;
16890;SDS011;8562;52.246;20.966;2022-10-16T00:05:40;7.90;;;6.73;;
16890;SDS011;8562;52.246;20.966;2022-10-16T00:08:06;7.70;;;5.97;;
16890;SDS011;8562;52.246;20.966;2022-10-16T00:10:33;8.17;;;6.13;;
16890;SDS011;8562;52.246;20.966;2022-10-16T00:12:59;7.97;;;6.13;;
16890;SDS011;8562;52.246;20.966;2022-10-16T00:15:25;15.40;;;7.00;;
16890;SDS011;8562;52.246;20.966;2022-10-16T00:17:51;9.87;;;6.33;;
16890;SDS011;8562;52.246;20.966;2022-10-16T00:20:17;7.10;;;5.67;;
16890;SDS011;8562;52.246;20.966;2022-10-16T00:22:43;8.57;;;6.00;;
16890;SDS011;8562;52.246;20.966;2022-10-16T00:25:09;7.97;;;5.30;;
16890;SDS011;8562;52.246;20.966;2022-10-16T00:27:36;8.27;;;6.03;;
16890;SDS011;8562;52.246;20.966;2022-10-16T00:30:02;7.57;;;6.07;;
16890;SDS011;8562;52.246;20.966;2022-10-16T00:32:28;8.33;;;6.07;;
16890;SDS011;8562;52.246;20.966;2022-10-16T00:34:54;8.53;;;5.73;;
16890;SDS011;8562;52.246;20.966;2022-10-16T00:37:20;9.83;;;5.67;;
16890;SDS011;8562;52.246;20.966;2022-10-16T00:39:47;8.47;;;5.77;;
16890;SDS011;8562;52.246;20.966;2022-10-16T00:42:17;9.07;;;6.13;;
16890;SDS011;8562;52.246;20.966;2022-10-16T00:44:51;9.73;;;6.00;;
16890;SDS011;8562;52.246;20.966;2022-10-16T00:49:47;10.67;;;7.10;;
16890;SDS011;8562;52.246;20.966;2022-10-16T00:52:14;9.70;;;6.63;;
16890;SDS011;8562;52.246;20.966;2022-10-16T00:54:40;10.73;;;7.40;;
16890;SDS011;8562;52.246;20.966;2022-10-16T00:57:06;10.63;;;6.30;;
16890;SDS011;8562;52.246;20.966;2022-10-16T00:59:34;9.43;;;6.37;;
16890;SDS011;8562;52.246;20.966;2022-10-16T01:02:01;13.00;;;6.77;;
16890;SDS011;8562;52.246;20.966;2022-10-16T01:04:28;9.07;;;7.20;;
16890;SDS011;8562;52.246;20.966;2022-10-16T01:12:04;12.27;;;7.63;;
16890;SDS011;8562;52.246;20.966;2022-10-16T01:17:28;11.00;;;7.13;;
16890;SDS011;8562;52.246;20.966;2022-10-16T01:20:00;11.50;;;7.07;;
16890;SDS011;8562;52.246;20.966;2022-10-16T01:25:16;11.47;;;7.23;;
16890;SDS011;8562;52.246;20.966;2022-10-16T01:27:44;11.80;;;7.00;;
16890;SDS011;8562;52.246;20.966;2022-10-16T01:30:21;11.30;;;7.20;;
16890;SDS011;8562;52.246;20.966;2022-10-16T01:32:59;10.03;;;6.33;;
16890;SDS011;8562;52.246;20.966;2022-10-16T01:35:27;11.20;;;7.17;;
16890;SDS011;8562;52.246;20.966;2022-10-16T01:40:31;14.07;;;7.77;;
16890;SDS011;8562;52.246;20.966;2022-10-16T01:43:05;10.93;;;7.67;;
16890;SDS011;8562;52.246;20.966;2022-10-16T01:45:32;11.63;;;7.70;;
16890;SDS011;8562;52.246;20.966;2022-10-16T01:48:00;15.57;;;7.87;;
16890;SDS011;8562;52.246;20.966;2022-10-16T01:50:29;12.73;;;7.90;;
16890;SDS011;8562;52.246;20.966;2022-10-16T01:52:56;17.37;;;8.37;;
16890;SDS011;8562;52.246;20.966;2022-10-16T01:55:28;11.97;;;8.27;;
16890;SDS011;8562;52.246;20.966;2022-10-16T01:57:55;11.10;;;7.63;;
16890;SDS011;8562;52.246;20.966;2022-10-16T02:00:22;12.23;;;8.27;;
16890;SDS011;8562;52.246;20.966;2022-10-16T02:02:49;13.40;;;8.30;;
16890;SDS011;8562;52.246;20.966;2022-10-16T02:05:28;14.70;;;7.27;;
16890;SDS011;8562;52.246;20.966;2022-10-16T02:07:56;14.43;;;7.77;;
16890;SDS011;8562;52.246;20.966;2022-10-16T02:10:22;13.77;;;8.90;;
16890;SDS011;8562;52.246;20.966;2022-10-16T02:12:51;14.23;;;9.70;;
16890;SDS011;8562;52.246;20.966;2022-10-16T02:15:20;11.93;;;7.47;;
16890;SDS011;8562;52.246;20.966;2022-10-16T02:17:46;13.20;;;8.63;;
16890;SDS011;8562;52.246;20.966;2022-10-16T02:20:12;10.73;;;7.07;;
16890;SDS011;8562;52.246;20.966;2022-10-16T02:22:39;11.17;;;8.53;;
16890;SDS011;8562;52.246;20.966;2022-10-16T02:27:41;16.53;;;9.17;;
16890;SDS011;8562;52.246;20.966;2022-10-16T02:30:13;13.73;;;9.03;;
16890;SDS011;8562;52.246;20.966;2022-10-16T02:32:40;11.20;;;8.17;;
16890;SDS011;8562;52.246;20.966;2022-10-16T02:35:08;11.23;;;8.30;;
16890;SDS011;8562;52.246;20.966;2022-10-16T02:37:34;14.20;;;7.70;;
16890;SDS011;8562;52.246;20.966;2022-10-16T02:40:02;11.57;;;7.53;;
16890;SDS011;8562;52.246;20.966;2022-10-16T02:42:36;10.40;;;7.43;;
16890;SDS011;8562;52.246;20.966;2022-10-16T02:45:03;10.67;;;7.50;;
16890;SDS011;8562;52.246;20.966;2022-10-16T02:47:30;10.87;;;7.13;;
16890;SDS011;8562;52.246;20.966;2022-10-16T02:49:56;13.90;;;8.07;;
16890;SDS011;8562;52.246;20.966;2022-10-16T02:52:22;13.27;;;8.30;;
16890;SDS011;8562;52.246;20.966;2022-10-16T02:54:48;12.37;;;8.70;;
16890;SDS011;8562;52.246;20.966;2022-10-16T02:57:14;13.23;;;8.27;;
16890;SDS011;8562;52.246;20.966;2022-10-16T02:59:41;13.43;;;8.37;;
16890;SDS011;8562;52.246;20.966;2022-10-16T03:02:07;13.13;;;8.87;;
16890;SDS011;8562;52.246;20.966;2022-10-16T03:04:33;11.20;;;8.17;;
16890;SDS011;8562;52.246;20.966;2022-10-16T03:06:59;10.73;;;8.20;;
16890;SDS011;8562;52.246;20.966;2022-10-16T03:09:26;14.93;;;9.00;;
16890;SDS011;8562;52.246;20.966;2022-10-16T03:11:52;14.47;;;8.47;;
16890;SDS011;8562;52.246;20.966;2022-10-16T03:14:18;14.13;;;8.93;;
16890;SDS011;8562;52.246;20.966;2022-10-16T03:16:44;12.70;;;8.17;;
16890;SDS011;8562;52.246;20.966;2022-10-16T03:19:10;14.63;;;8.30;;
16890;SDS011;8562;52.246;20.966;2022-10-16T03:21:36;15.67;;;8.40;;
16890;SDS011;8562;52.246;20.966;2022-10-16T03:24:02;20.10;;;9.23;;
16890;SDS011;8562;52.246;20.966;2022-10-16T03:26:28;11.90;;;7.77;;
16890;SDS011;8562;52.246;20.966;2022-10-16T03:28:54;11.17;;;8.83;;
16890;SDS011;8562;52.246;20.966;2022-10-16T03:31:20;11.57;;;8.17;;
16890;SDS011;8562;52.246;20.966;2022-10-16T03:33:47;13.97;;;8.23;;
16890;SDS011;8562;52.246;20.966;2022-10-16T03:36:13;12.57;;;8.30;;
16890;SDS011;8562;52.246;20.966;2022-10-16T03:38:39;12.90;;;8.37;;
16890;SDS011;8562;52.246;20.966;2022-10-16T03:41:05;13.33;;;8.37;;
16890;SDS011;8562;52.246;20.966;2022-10-16T03:43:32;11.90;;;8.63;;
16890;SDS011;8562;52.246;20.966;2022-10-16T03:45:59;13.07;;;8.13;;
16890;SDS011;8562;52.246;20.966;2022-10-16T03:48:25;11.60;;;7.90;;
16890;SDS011;8562;52.246;20.966;2022-10-16T03:50:51;11.63;;;7.83;;
16890;SDS011;8562;52.246;20.966;2022-10-16T03:53:17;12.97;;;8.03;;
16890;SDS011;8562;52.246;20.966;2022-10-16T03:55:43;11.60;;;7.97;;
16890;SDS011;8562;52.246;20.966;2022-10-16T03:58:10;13.33;;;8.40;;
16890;SDS011;8562;52.246;20.966;2022-10-16T04:00:40;12.53;;;8.57;;
16890;SDS011;8562;52.246;20.966;2022-10-16T04:03:06;13.13;;;8.27;;
16890;SDS011;8562;52.246;20.966;2022-10-16T04:05:33;13.00;;;8.00;;
16890;SDS011;8562;52.246;20.966;2022-10-16T04:07:59;8.37;;;6.43;;
16890;SDS011;8562;52.246;20.966;2022-10-16T04:10:26;13.30;;;8.13;;
16890;SDS011;8562;52.246;20.966;2022-10-16T04:12:52;12.37;;;8.10;;
16890;SDS011;8562;52.246;20.966;2022-10-16T04:15:21;9.17;;;7.97;;
16890;SDS011;8562;52.246;20.966;2022-10-16T04:17:47;11.33;;;7.63;;
16890;SDS011;8562;52.246;20.966;2022-10-16T04:20:13;15.53;;;9.13;;
16890;SDS011;8562;52.246;20.966;2022-10-16T04:22:40;10.07;;;8.33;;
16890;SDS011;8562;52.246;20.966;2022-10-16T04:25:06;11.30;;;8.03;;
16890;SDS011;8562;52.246;20.966;2022-10-16T04:27:32;13.53;;;8.37;;
16890;SDS011;8562;52.246;20.966;2022-10-16T04:29:58;11.80;;;7.53;;
16890;SDS011;8562;52.246;20.966;2022-10-16T04:32:25;9.30;;;7.97;;
16890;SDS011;8562;52.246;20.966;2022-10-16T04:34:51;10.83;;;8.00;;
16890;SDS011;8562;52.246;20.966;2022-10-16T04:37:17;13.53;;;8.93;;
16890;SDS011;8562;52.246;20.966;2022-10-16T04:39:43;13.07;;;8.07;;
16890;SDS011;8562;52.246;20.966;2022-10-16T04:42:10;11.07;;;7.83;;
16890;SDS011;8562;52.246;20.966;2022-10-16T04:44:36;13.20;;;7.33;;
16890;SDS011;8562;52.246;20.966;2022-10-16T04:47:02;10.97;;;8.10;;
16890;SDS011;8562;52.246;20.966;2022-10-16T04:49:29;11.03;;;8.13;;
16890;SDS011;8562;52.246;20.966;2022-10-16T04:51:55;12.90;;;7.23;;
16890;SDS011;8562;52.246;20.966;2022-10-16T04:54:22;15.07;;;8.07;;
16890;SDS011;8562;52.246;20.966;2022-10-16T04:56:48;13.27;;;8.13;;
16890;SDS011;8562;52.246;20.966;2022-10-16T04:59:16;14.47;;;8.10;;
16890;SDS011;8562;52.246;20.966;2022-10-16T05:01:42;12.77;;;8.70;;
16890;SDS011;8562;52.246;20.966;2022-10-16T05:04:09;12.83;;;8.50;;
16890;SDS011;8562;52.246;20.966;2022-10-16T05:06:35;12.47;;;8.27;;
16890;SDS011;8562;52.246;20.966;2022-10-16T05:09:02;12.00;;;7.43;;
16890;SDS011;8562;52.246;20.966;2022-10-16T05:11:28;11.33;;;8.30;;
16890;SDS011;8562;52.246;20.966;2022-10-16T05:13:54;12.77;;;8.77;;
16890;SDS011;8562;52.246;20.966;2022-10-16T05:16:20;12.13;;;7.47;;
16890;SDS011;8562;52.246;20.966;2022-10-16T05:18:46;10.83;;;7.70;;
16890;SDS011;8562;52.246;20.966;2022-10-16T05:21:12;12.43;;;8.27;;
16890;SDS011;8562;52.246;20.966;2022-10-16T05:23:38;10.67;;;8.30;;
16890;SDS011;8562;52.246;20.966;2022-10-16T05:26:05;11.00;;;8.80;;
16890;SDS011;8562;52.246;20.966;2022-10-16T05:28:31;11.47;;;7.73;;
16890;SDS011;8562;52.246;20.966;2022-10-16T05:30:57;15.80;;;8.50;;
16890;SDS011;8562;52.246;20.966;2022-10-16T05:33:25;10.97;;;7.70;;
16890;SDS011;8562;52.246;20.966;2022-10-16T05:35:51;12.67;;;8.40;;
16890;SDS011;8562;52.246;20.966;2022-10-16T05:38:17;10.40;;;7.47;;
16890;SDS011;8562;52.246;20.966;2022-10-16T05:40:43;11.97;;;8.00;;
16890;SDS011;8562;52.246;20.966;2022-10-16T05:43:09;12.17;;;7.40;;
16890;SDS011;8562;52.246;20.966;2022-10-16T05:45:35;14.67;;;8.60;;
16890;SDS011;8562;52.246;20.966;2022-10-16T05:48:02;11.10;;;8.10;;
16890;SDS011;8562;52.246;20.966;2022-10-16T05:50:28;14.93;;;7.47;;
16890;SDS011;8562;52.246;20.966;2022-10-16T05:52:54;11.10;;;7.83;;
16890;SDS011;8562;52.246;20.966;2022-10-16T05:55:20;10.00;;;7.60;;
16890;SDS011;8562;52.246;20.966;2022-10-16T05:57:46;9.93;;;7.97;;
16890;SDS011;8562;52.246;20.966;2022-10-16T06:00:12;11.43;;;8.40;;
16890;SDS011;8562;52.246;20.966;2022-10-16T06:02:38;15.03;;;8.60;;
16890;SDS011;8562;52.246;20.966;2022-10-16T06:05:05;11.10;;;7.53;;
16890;SDS011;8562;52.246;20.966;2022-10-16T06:07:33;14.30;;;8.80;;
16890;SDS011;8562;52.246;20.966;2022-10-16T06:10:00;12.43;;;8.40;;
16890;SDS011;8562;52.246;20.966;2022-10-16T06:12:26;9.77;;;8.03;;
16890;SDS011;8562;52.246;20.966;2022-10-16T06:14:52;13.20;;;8.70;;
16890;SDS011;8562;52.246;20.966;2022-10-16T06:17:18;16.73;;;8.93;;
16890;SDS011;8562;52.246;20.966;2022-10-16T06:19:44;14.73;;;8.57;;
16890;SDS011;8562;52.246;20.966;2022-10-16T06:22:10;10.63;;;8.17;;
16890;SDS011;8562;52.246;20.966;2022-10-16T06:24:37;12.37;;;8.73;;
16890;SDS011;8562;52.246;20.966;2022-10-16T06:27:03;13.70;;;7.80;;
16890;SDS011;8562;52.246;20.966;2022-10-16T06:29:30;14.40;;;7.93;;
16890;SDS011;8562;52.246;20.966;2022-10-16T06:31:56;12.90;;;8.13;;
16890;SDS011;8562;52.246;20.966;2022-10-16T06:34:22;9.27;;;7.10;;
16890;SDS011;8562;52.246;20.966;2022-10-16T06:36:48;12.33;;;8.07;;
16890;SDS011;8562;52.246;20.966;2022-10-16T06:39:14;12.43;;;8.63;;
16890;SDS011;8562;52.246;20.966;2022-10-16T06:41:40;11.17;;;7.87;;
16890;SDS011;8562;52.246;20.966;2022-10-16T06:44:15;12.53;;;7.87;;
16890;SDS011;8562;52.246;20.966;2022-10-16T06:46:41;13.30;;;8.47;;
16890;SDS011;8562;52.246;20.966;2022-10-16T06:49:07;15.83;;;8.10;;
16890;SDS011;8562;52.246;20.966;2022-10-16T06:51:33;9.87;;;7.80;;
16890;SDS011;8562;52.246;20.966;2022-10-16T06:54:01;13.00;;;9.50;;
16890;SDS011;8562;52.246;20.966;2022-10-16T06:56:27;10.87;;;7.03;;
16890;SDS011;8562;52.246;20.966;2022-10-16T06:58:55;10.43;;;7.67;;
16890;SDS011;8562;52.246;20.966;2022-10-16T07:01:22;13.37;;;8.20;;
16890;SDS011;8562;52.246;20.966;2022-10-16T07:03:48;11.90;;;7.57;;
16890;SDS011;8562;52.246;20.966;2022-10-16T07:06:16;10.37;;;8.27;;
16890;SDS011;8562;52.246;20.966;2022-10-16T07:08:42;10.80;;;8.00;;
16890;SDS011;8562;52.246;20.966;2022-10-16T07:11:13;12.73;;;8.50;;
16890;SDS011;8562;52.246;20.966;2022-10-16T07:13:40;10.90;;;7.77;;
16890;SDS011;8562;52.246;20.966;2022-10-16T07:16:07;9.73;;;7.60;;
16890;SDS011;8562;52.246;20.966;2022-10-16T07:18:34;9.60;;;7.20;;
16890;SDS011;8562;52.246;20.966;2022-10-16T07:23:30;10.33;;;7.93;;
16890;SDS011;8562;52.246;20.966;2022-10-16T07:25:56;12.23;;;7.70;;
16890;SDS011;8562;52.246;20.966;2022-10-16T07:28:22;9.43;;;7.77;;
16890;SDS011;8562;52.246;20.966;2022-10-16T07:30:48;11.67;;;7.70;;
16890;SDS011;8562;52.246;20.966;2022-10-16T07:33:14;10.73;;;8.57;;
16890;SDS011;8562;52.246;20.966;2022-10-16T07:35:48;10.50;;;7.27;;
16890;SDS011;8562;52.246;20.966;2022-10-16T07:38:14;10.80;;;7.40;;
16890;SDS011;8562;52.246;20.966;2022-10-16T07:40:40;12.97;;;8.40;;
16890;SDS011;8562;52.246;20.966;2022-10-16T07:43:06;10.43;;;8.23;;
16890;SDS011;8562;52.246;20.966;2022-10-16T07:45:32;11.30;;;7.60;;
16890;SDS011;8562;52.246;20.966;2022-10-16T07:47:58;10.80;;;7.63;;
16890;SDS011;8562;52.246;20.966;2022-10-16T07:50:25;13.40;;;7.43;;
16890;SDS011;8562;52.246;20.966;2022-10-16T07:52:51;14.53;;;8.43;;
16890;SDS011;8562;52.246;20.966;2022-10-16T07:55:17;10.33;;;7.93;;
16890;SDS011;8562;52.246;20.966;2022-10-16T07:57:43;14.23;;;9.00;;
16890;SDS011;8562;52.246;20.966;2022-10-16T08:00:09;12.03;;;7.30;;
16890;SDS011;8562;52.246;20.966;2022-10-16T08:02:39;9.60;;;7.23;;
16890;SDS011;8562;52.246;20.966;2022-10-16T08:05:05;10.47;;;6.30;;
16890;SDS011;8562;52.246;20.966;2022-10-16T08:07:31;11.93;;;7.80;;
16890;SDS011;8562;52.246;20.966;2022-10-16T08:09:57;11.80;;;7.33;;
16890;SDS011;8562;52.246;20.966;2022-10-16T08:12:24;11.63;;;7.07;;
16890;SDS011;8562;52.246;20.966;2022-10-16T08:14:50;8.60;;;6.87;;
16890;SDS011;8562;52.246;20.966;2022-10-16T08:17:16;10.97;;;7.40;;
16890;SDS011;8562;52.246;20.966;2022-10-16T08:19:46;10.97;;;7.33;;
16890;SDS011;8562;52.246;20.966;2022-10-16T08:22:15;8.73;;;6.80;;
16890;SDS011;8562;52.246;20.966;2022-10-16T08:24:41;12.27;;;7.33;;
16890;SDS011;8562;52.246;20.966;2022-10-16T08:27:07;9.20;;;7.30;;
16890;SDS011;8562;52.246;20.966;2022-10-16T08:29:34;7.53;;;6.07;;
16890;SDS011;8562;52.246;20.966;2022-10-16T08:32:00;10.83;;;6.47;;
16890;SDS011;8562;52.246;20.966;2022-10-16T08:34:26;10.57;;;7.13;;
16890;SDS011;8562;52.246;20.966;2022-10-16T08:36:55;9.80;;;6.43;;
16890;SDS011;8562;52.246;20.966;2022-10-16T08:39:21;10.93;;;6.57;;
16890;SDS011;8562;52.246;20.966;2022-10-16T08:49:33;8.30;;;6.10;;
16890;SDS011;8562;52.246;20.966;2022-10-16T08:51:59;6.90;;;5.77;;
16890;SDS011;8562;52.246;20.966;2022-10-16T08:54:28;10.47;;;6.40;;
16890;SDS011;8562;52.246;20.966;2022-10-16T08:56:56;9.97;;;6.03;;
16890;SDS011;8562;52.246;20.966;2022-10-16T08:59:22;9.93;;;6.10;;
16890;SDS011;8562;52.246;20.966;2022-10-16T09:01:50;7.40;;;5.47;;
16890;SDS011;8562;52.246;20.966;2022-10-16T09:07:04;9.07;;;6.20;;
16890;SDS011;8562;52.246;20.966;2022-10-16T09:19:56;8.90;;;6.17;;
16890;SDS011;8562;52.246;20.966;2022-10-16T09:22:27;8.87;;;6.27;;
16890;SDS011;8562;52.246;20.966;2022-10-16T09:24:54;8.10;;;5.63;;
16890;SDS011;8562;52.246;20.966;2022-10-16T09:27:21;9.50;;;6.37;;
16890;SDS011;8562;52.246;20.966;2022-10-16T09:29:47;9.13;;;6.87;;
16890;SDS011;8562;52.246;20.966;2022-10-16T09:32:14;8.80;;;6.10;;
16890;SDS011;8562;52.246;20.966;2022-10-16T09:34:42;10.30;;;5.47;;
16890;SDS011;8562;52.246;20.966;2022-10-16T09:37:10;13.90;;;6.43;;
16890;SDS011;8562;52.246;20.966;2022-10-16T09:39:44;7.23;;;5.70;;
16890;SDS011;8562;52.246;20.966;2022-10-16T09:42:14;6.33;;;5.73;;
16890;SDS011;8562;52.246;20.966;2022-10-16T09:44:40;7.27;;;5.93;;
16890;SDS011;8562;52.246;20.966;2022-10-16T09:47:16;12.53;;;6.47;;
16890;SDS011;8562;52.246;20.966;2022-10-16T09:49:59;7.60;;;5.70;;
16890;SDS011;8562;52.246;20.966;2022-10-16T09:52:30;7.83;;;5.70;;
16890;SDS011;8562;52.246;20.966;2022-10-16T09:54:57;6.93;;;6.00;;
16890;SDS011;8562;52.246;20.966;2022-10-16T09:57:23;7.93;;;5.87;;
16890;SDS011;8562;52.246;20.966;2022-10-16T09:59:50;9.13;;;6.30;;
16890;SDS011;8562;52.246;20.966;2022-10-16T10:02:18;11.27;;;7.27;;
16890;SDS011;8562;52.246;20.966;2022-10-16T10:04:51;8.77;;;6.07;;
16890;SDS011;8562;52.246;20.966;2022-10-16T10:09:51;11.17;;;7.00;;
16890;SDS011;8562;52.246;20.966;2022-10-16T10:14:45;6.73;;;6.03;;
16890;SDS011;8562;52.246;20.966;2022-10-16T10:17:13;9.50;;;6.37;;
16890;SDS011;8562;52.246;20.966;2022-10-16T10:30:18;8.20;;;6.30;;
16890;SDS011;8562;52.246;20.966;2022-10-16T10:38:02;7.97;;;5.80;;
16890;SDS011;8562;52.246;20.966;2022-10-16T10:51:11;10.67;;;5.87;;
16890;SDS011;8562;52.246;20.966;2022-10-16T10:53:25;6.47;;;5.80;;
16890;SDS011;8562;52.246;20.966;2022-10-16T10:56:04;8.07;;;6.07;;
16890;SDS011;8562;52.246;20.966;2022-10-16T11:01:21;7.30;;;6.17;;
16890;SDS011;8562;52.246;20.966;2022-10-16T11:06:29;6.57;;;5.30;;
16890;SDS011;8562;52.246;20.966;2022-10-16T11:08:57;8.17;;;6.23;;
16890;SDS011;8562;52.246;20.966;2022-10-16T11:11:27;9.53;;;6.10;;
16890;SDS011;8562;52.246;20.966;2022-10-16T11:14:15;7.63;;;5.53;;
16890;SDS011;8562;52.246;20.966;2022-10-16T11:16:52;6.33;;;5.30;;
16890;SDS011;8562;52.246;20.966;2022-10-16T11:22:21;7.57;;;4.87;;
16890;SDS011;8562;52.246;20.966;2022-10-16T11:24:51;8.23;;;5.83;;
16890;SDS011;8562;52.246;20.966;2022-10-16T11:27:20;8.27;;;6.03;;
16890;SDS011;8562;52.246;20.966;2022-10-16T11:29:56;10.00;;;5.47;;
16890;SDS011;8562;52.246;20.966;2022-10-16T11:32:27;7.27;;;5.53;;
16890;SDS011;8562;52.246;20.966;2022-10-16T11:34:59;5.43;;;4.93;;
16890;SDS011;8562;52.246;20.966;2022-10-16T11:37:29;8.50;;;6.07;;
16890;SDS011;8562;52.246;20.966;2022-10-16T11:39:58;8.47;;;5.63;;
16890;SDS011;8562;52.246;20.966;2022-10-16T11:42:39;8.20;;;5.70;;
16890;SDS011;8562;52.246;20.966;2022-10-16T11:47:40;9.07;;;6.00;;
16890;SDS011;8562;52.246;20.966;2022-10-16T11:50:11;11.53;;;5.77;;
16890;SDS011;8562;52.246;20.966;2022-10-16T11:52:41;8.63;;;5.70;;
16890;SDS011;8562;52.246;20.966;2022-10-16T11:57:35;6.47;;;5.10;;
16890;SDS011;8562;52.246;20.966;2022-10-16T12:02:48;7.87;;;5.57;;
16890;SDS011;8562;52.246;20.966;2022-10-16T12:05:19;7.07;;;5.57;;
16890;SDS011;8562;52.246;20.966;2022-10-16T12:07:50;6.37;;;5.33;;
16890;SDS011;8562;52.246;20.966;2022-10-16T12:10:27;7.67;;;5.20;;
16890;SDS011;8562;52.246;20.966;2022-10-16T12:12:54;7.20;;;5.90;;
16890;SDS011;8562;52.246;20.966;2022-10-16T12:15:23;8.40;;;5.70;;
16890;SDS011;8562;52.246;20.966;2022-10-16T12:17:50;7.40;;;5.27;;
16890;SDS011;8562;52.246;20.966;2022-10-16T12:22:48;6.23;;;4.97;;
16890;SDS011;8562;52.246;20.966;2022-10-16T12:27:53;6.80;;;5.40;;
16890;SDS011;8562;52.246;20.966;2022-10-16T12:30:20;10.13;;;5.73;;
16890;SDS011;8562;52.246;20.966;2022-10-16T12:32:52;8.80;;;5.10;;
16890;SDS011;8562;52.246;20.966;2022-10-16T12:35:20;5.10;;;4.43;;
16890;SDS011;8562;52.246;20.966;2022-10-16T12:37:47;7.23;;;5.50;;
16890;SDS011;8562;52.246;20.966;2022-10-16T12:40:14;6.50;;;4.70;;
16890;SDS011;8562;52.246;20.966;2022-10-16T12:42:40;7.20;;;4.97;;
16890;SDS011;8562;52.246;20.966;2022-10-16T12:45:21;5.93;;;4.60;;
16890;SDS011;8562;52.246;20.966;2022-10-16T12:47:50;8.03;;;5.50;;
16890;SDS011;8562;52.246;20.966;2022-10-16T12:50:24;9.00;;;4.90;;
16890;SDS011;8562;52.246;20.966;2022-10-16T12:52:51;7.73;;;4.63;;
16890;SDS011;8562;52.246;20.966;2022-10-16T12:55:18;8.67;;;4.87;;
16890;SDS011;8562;52.246;20.966;2022-10-16T13:05:33;7.63;;;5.47;;
16890;SDS011;8562;52.246;20.966;2022-10-16T13:08:05;7.80;;;5.40;;
16890;SDS011;8562;52.246;20.966;2022-10-16T13:30:24;6.93;;;5.63;;
16890;SDS011;8562;52.246;20.966;2022-10-16T13:32:54;8.00;;;5.37;;
16890;SDS011;8562;52.246;20.966;2022-10-16T13:35:26;8.00;;;5.07;;
16890;SDS011;8562;52.246;20.966;2022-10-16T13:43:15;7.07;;;4.80;;
16890;SDS011;8562;52.246;20.966;2022-10-16T13:45:42;7.80;;;5.37;;
16890;SDS011;8562;52.246;20.966;2022-10-16T13:48:17;8.00;;;5.50;;
16890;SDS011;8562;52.246;20.966;2022-10-16T13:50:44;7.13;;;5.00;;
16890;SDS011;8562;52.246;20.966;2022-10-16T13:53:14;6.27;;;5.10;;
16890;SDS011;8562;52.246;20.966;2022-10-16T13:55:40;6.43;;;4.80;;
16890;SDS011;8562;52.246;20.966;2022-10-16T13:58:13;6.50;;;5.47;;
16890;SDS011;8562;52.246;20.966;2022-10-16T14:00:39;7.50;;;4.80;;
16890;SDS011;8562;52.246;20.966;2022-10-16T14:03:07;7.10;;;4.87;;
16890;SDS011;8562;52.246;20.966;2022-10-16T14:05:34;6.90;;;5.13;;
16890;SDS011;8562;52.246;20.966;2022-10-16T14:08:00;5.90;;;4.73;;
16890;SDS011;8562;52.246;20.966;2022-10-16T14:10:27;6.10;;;4.57;;
16890;SDS011;8562;52.246;20.966;2022-10-16T14:12:59;6.27;;;5.13;;
16890;SDS011;8562;52.246;20.966;2022-10-16T14:15:26;5.73;;;4.80;;
16890;SDS011;8562;52.246;20.966;2022-10-16T14:17:52;6.70;;;4.77;;
16890;SDS011;8562;52.246;20.966;2022-10-16T14:20:20;7.47;;;4.73;;
16890;SDS011;8562;52.246;20.966;2022-10-16T14:22:46;6.97;;;4.93;;
16890;SDS011;8562;52.246;20.966;2022-10-16T14:27:45;6.60;;;5.03;;
16890;SDS011;8562;52.246;20.966;2022-10-16T14:30:19;6.23;;;4.87;;
16890;SDS011;8562;52.246;20.966;2022-10-16T14:33:02;5.47;;;4.53;;
16890;SDS011;8562;52.246;20.966;2022-10-16T14:35:30;5.83;;;4.90;;
16890;SDS011;8562;52.246;20.966;2022-10-16T14:37:57;6.40;;;5.33;;
16890;SDS011;8562;52.246;20.966;2022-10-16T14:40:34;9.97;;;5.70;;
16890;SDS011;8562;52.246;20.966;2022-10-16T14:43:01;6.97;;;4.97;;
16890;SDS011;8562;52.246;20.966;2022-10-16T14:45:28;7.73;;;5.83;;
16890;SDS011;8562;52.246;20.966;2022-10-16T14:47:56;6.53;;;5.10;;
16890;SDS011;8562;52.246;20.966;2022-10-16T14:50:22;8.20;;;4.93;;
16890;SDS011;8562;52.246;20.966;2022-10-16T14:52:49;5.83;;;4.77;;
16890;SDS011;8562;52.246;20.966;2022-10-16T14:55:15;12.23;;;5.60;;
16890;SDS011;8562;52.246;20.966;2022-10-16T14:57:42;6.77;;;4.63;;
16890;SDS011;8562;52.246;20.966;2022-10-16T15:00:18;7.07;;;4.70;;
16890;SDS011;8562;52.246;20.966;2022-10-16T15:02:46;7.40;;;5.40;;
16890;SDS011;8562;52.246;20.966;2022-10-16T15:07:42;8.30;;;5.27;;
16890;SDS011;8562;52.246;20.966;2022-10-16T15:10:08;11.33;;;5.77;;
16890;SDS011;8562;52.246;20.966;2022-10-16T15:12:34;7.87;;;4.97;;
16890;SDS011;8562;52.246;20.966;2022-10-16T15:15:01;8.00;;;5.63;;
16890;SDS011;8562;52.246;20.966;2022-10-16T15:17:27;9.07;;;5.43;;
16890;SDS011;8562;52.246;20.966;2022-10-16T15:19:53;7.57;;;5.53;;
16890;SDS011;8562;52.246;20.966;2022-10-16T15:22:19;10.17;;;5.03;;
16890;SDS011;8562;52.246;20.966;2022-10-16T15:24:48;6.83;;;5.40;;
16890;SDS011;8562;52.246;20.966;2022-10-16T15:27:14;8.07;;;6.13;;
16890;SDS011;8562;52.246;20.966;2022-10-16T15:29:40;8.00;;;5.13;;
16890;SDS011;8562;52.246;20.966;2022-10-16T15:32:08;8.90;;;5.83;;
16890;SDS011;8562;52.246;20.966;2022-10-16T15:34:34;8.37;;;6.03;;
16890;SDS011;8562;52.246;20.966;2022-10-16T15:37:02;8.30;;;5.50;;
16890;SDS011;8562;52.246;20.966;2022-10-16T15:39:28;9.00;;;5.70;;
16890;SDS011;8562;52.246;20.966;2022-10-16T15:41:54;8.23;;;6.37;;
16890;SDS011;8562;52.246;20.966;2022-10-16T15:44:20;8.47;;;5.93;;
16890;SDS011;8562;52.246;20.966;2022-10-16T15:46:54;9.53;;;6.03;;
16890;SDS011;8562;52.246;20.966;2022-10-16T15:49:21;7.10;;;5.90;;
16890;SDS011;8562;52.246;20.966;2022-10-16T15:51:47;10.50;;;6.13;;
16890;SDS011;8562;52.246;20.966;2022-10-16T15:54:13;8.07;;;5.40;;
16890;SDS011;8562;52.246;20.966;2022-10-16T15:56:40;9.57;;;5.63;;
16890;SDS011;8562;52.246;20.966;2022-10-16T15:59:06;8.20;;;5.90;;
16890;SDS011;8562;52.246;20.966;2022-10-16T16:01:33;6.03;;;5.40;;
16890;SDS011;8562;52.246;20.966;2022-10-16T16:04:00;9.90;;;6.20;;
16890;SDS011;8562;52.246;20.966;2022-10-16T16:06:26;7.57;;;5.33;;
16890;SDS011;8562;52.246;20.966;2022-10-16T16:08:53;7.60;;;6.37;;
16890;SDS011;8562;52.246;20.966;2022-10-16T16:11:20;10.00;;;6.10;;
16890;SDS011;8562;52.246;20.966;2022-10-16T16:13:48;8.70;;;6.20;;
16890;SDS011;8562;52.246;20.966;2022-10-16T16:16:15;8.10;;;6.30;;
16890;SDS011;8562;52.246;20.966;2022-10-16T16:18:41;10.20;;;6.23;;
16890;SDS011;8562;52.246;20.966;2022-10-16T16:21:08;9.00;;;6.30;;
16890;SDS011;8562;52.246;20.966;2022-10-16T16:23:36;8.57;;;5.60;;
16890;SDS011;8562;52.246;20.966;2022-10-16T16:28:31;7.50;;;5.70;;
16890;SDS011;8562;52.246;20.966;2022-10-16T16:30:57;7.67;;;5.67;;
16890;SDS011;8562;52.246;20.966;2022-10-16T16:33:23;11.70;;;7.20;;
16890;SDS011;8562;52.246;20.966;2022-10-16T16:35:49;7.47;;;5.53;;
16890;SDS011;8562;52.246;20.966;2022-10-16T16:38:15;8.30;;;6.20;;
16890;SDS011;8562;52.246;20.966;2022-10-16T16:40:41;8.20;;;6.10;;
16890;SDS011;8562;52.246;20.966;2022-10-16T16:43:08;7.40;;;5.70;;
16890;SDS011;8562;52.246;20.966;2022-10-16T16:45:37;8.30;;;5.70;;
16890;SDS011;8562;52.246;20.966;2022-10-16T16:48:03;8.03;;;5.97;;
16890;SDS011;8562;52.246;20.966;2022-10-16T16:50:34;7.10;;;5.87;;
16890;SDS011;8562;52.246;20.966;2022-10-16T16:53:00;8.37;;;6.10;;
16890;SDS011;8562;52.246;20.966;2022-10-16T16:55:26;9.70;;;6.90;;
16890;SDS011;8562;52.246;20.966;2022-10-16T16:57:52;8.63;;;5.87;;